createdAt,value
2024-04-08T00:53:15.065Z,16.10
2024-04-08T00:56:19.896Z,16.00
2024-04-08T00:59:23.817Z,16.00
2024-04-08T01:02:25.776Z,16.00
2024-04-08T01:05:28.032Z,16.00
2024-04-08T01:08:29.869Z,16.00
2024-04-08T01:11:32.156Z,15.90
2024-04-08T01:14:34.418Z,16.00
2024-04-08T01:17:36.399Z,15.90
2024-04-08T01:20:38.319Z,15.90
2024-04-08T01:23:42.600Z,15.90
2024-04-08T01:26:44.510Z,15.90
2024-04-08T01:29:46.415Z,15.90
2024-04-08T01:32:48.264Z,15.90
2024-04-08T01:35:50.050Z,15.90
2024-04-08T01:38:51.838Z,15.90
2024-04-08T01:41:53.592Z,15.90
2024-04-08T01:44:55.321Z,15.80
2024-04-08T01:47:57.134Z,15.80
2024-04-08T01:50:58.914Z,15.80
2024-04-08T01:54:00.714Z,15.80
2024-04-08T01:57:02.726Z,15.90
2024-04-08T02:00:06.025Z,15.90
2024-04-08T02:03:07.806Z,15.90
2024-04-08T02:06:09.550Z,15.90
2024-04-08T02:09:11.305Z,15.80
2024-04-08T02:12:13.089Z,15.90
2024-04-08T02:15:15.044Z,15.90
2024-04-08T02:18:16.996Z,15.90
2024-04-08T02:21:18.757Z,15.90
2024-04-08T02:24:20.685Z,15.80
2024-04-08T02:27:22.451Z,15.80
2024-04-08T02:30:24.353Z,15.80
2024-04-08T02:33:29.107Z,15.90
2024-04-08T02:36:30.969Z,15.90
2024-04-08T02:39:32.760Z,15.90
2024-04-08T02:42:34.520Z,15.90
2024-04-08T02:45:36.296Z,15.90
2024-04-08T02:48:39.336Z,15.90
2024-04-08T02:51:41.133Z,16.00
2024-04-08T02:54:42.889Z,16.10
2024-04-08T02:57:44.615Z,16.00
2024-04-08T03:00:46.673Z,16.00
2024-04-08T03:03:48.528Z,16.10
2024-04-08T03:06:50.270Z,16.10
2024-04-08T03:09:55.654Z,16.10
2024-04-08T03:12:57.379Z,16.10
2024-04-08T03:15:59.209Z,16.00
2024-04-08T03:19:01.074Z,16.00
2024-04-08T03:22:02.942Z,16.00
2024-04-08T03:25:04.974Z,16.00
2024-04-08T03:28:06.856Z,16.00
2024-04-08T03:31:08.980Z,16.10
2024-04-08T03:34:10.758Z,16.10
2024-04-08T03:37:12.757Z,16.10
2024-04-08T03:40:14.576Z,16.10
2024-04-08T03:43:17.295Z,16.10
2024-04-08T03:46:20.678Z,16.10
2024-04-08T03:49:22.462Z,16.10
2024-04-08T03:52:24.319Z,16.10
2024-04-08T03:55:30.915Z,16.10
2024-04-08T03:58:32.772Z,16.10
2024-04-08T04:01:34.538Z,16.00
2024-04-08T04:04:36.267Z,16.00
2024-04-08T04:07:38.814Z,15.90
2024-04-08T04:10:40.603Z,15.90
2024-04-08T04:13:42.365Z,15.90
2024-04-08T04:16:44.131Z,15.90
2024-04-08T04:19:46.175Z,15.90
2024-04-08T04:22:48.149Z,15.90
2024-04-08T04:25:54.752Z,15.90
2024-04-08T04:28:56.529Z,15.90
2024-04-08T04:31:58.303Z,15.90
2024-04-08T04:35:00.238Z,15.90
2024-04-08T04:38:02.349Z,15.80
2024-04-08T04:41:08.209Z,15.80
2024-04-08T04:44:10.003Z,15.70
2024-04-08T04:47:11.805Z,15.70
2024-04-08T04:50:13.576Z,15.70
2024-04-08T04:53:15.389Z,15.70
2024-04-08T04:56:17.202Z,15.70
2024-04-08T04:59:18.953Z,15.60
2024-04-08T05:02:21.234Z,15.60
2024-04-08T05:05:23.108Z,15.50
2024-04-08T05:08:25.242Z,15.50
2024-04-08T05:11:27.006Z,15.50
2024-04-08T05:14:28.800Z,15.50
2024-04-08T05:17:30.726Z,15.50
2024-04-08T05:20:32.572Z,15.50
2024-04-08T05:23:34.426Z,15.50
2024-04-08T05:26:36.215Z,15.50
2024-04-08T05:29:38.070Z,15.60
2024-04-08T05:32:39.909Z,15.60
2024-04-08T05:35:42.786Z,15.70
2024-04-08T05:38:44.607Z,15.70
2024-04-08T05:41:46.524Z,15.70
2024-04-08T05:44:48.436Z,15.80
2024-04-08T05:47:55.423Z,15.80
2024-04-08T05:50:58.275Z,15.90
2024-04-08T05:54:00.267Z,16.00
2024-04-08T05:57:02.958Z,16.10
2024-04-08T06:00:07.553Z,16.20
2024-04-08T06:03:09.300Z,16.30
2024-04-08T06:06:20.431Z,16.30
2024-04-08T06:09:22.169Z,16.40
2024-04-08T06:12:24.249Z,16.50
2024-04-08T06:15:26.392Z,16.60
2024-04-08T06:18:28.137Z,16.70
2024-04-08T06:21:30.031Z,16.80
2024-04-08T06:24:31.860Z,16.90
2024-04-08T06:27:34.095Z,17.00
2024-04-08T06:30:35.862Z,17.10
2024-04-08T06:33:37.636Z,17.30
2024-04-08T06:36:39.398Z,17.40
2024-04-08T06:39:41.120Z,17.50
2024-04-08T06:42:42.833Z,17.70
2024-04-08T06:45:44.582Z,17.80
2024-04-08T06:48:46.439Z,18.00
2024-04-08T06:51:48.180Z,18.10
2024-04-08T06:54:49.959Z,18.30
2024-04-08T06:57:51.877Z,18.40
2024-04-08T07:00:53.806Z,18.60
2024-04-08T07:03:55.578Z,18.70
2024-04-08T07:06:57.956Z,18.80
2024-04-08T07:09:59.966Z,19.00
2024-04-08T07:13:01.832Z,19.10
2024-04-08T07:16:05.030Z,19.30
2024-04-08T07:19:06.915Z,19.40
2024-04-08T07:22:08.871Z,19.60
2024-04-08T07:25:10.721Z,19.70
2024-04-08T07:28:12.690Z,19.80
2024-04-08T07:31:14.560Z,20.00
2024-04-08T07:34:21.089Z,20.10
2024-04-08T07:37:22.996Z,20.30
2024-04-08T07:40:24.759Z,20.40
2024-04-08T07:43:26.547Z,20.60
2024-04-08T07:46:28.839Z,20.70
2024-04-08T07:49:30.723Z,20.90
2024-04-08T07:52:33.420Z,21.00
2024-04-08T07:55:35.249Z,21.10
2024-04-08T07:58:37.217Z,21.20
2024-04-08T08:01:39.100Z,21.30
2024-04-08T08:04:40.885Z,21.50
2024-04-08T08:07:42.654Z,21.60
2024-04-08T08:10:46.207Z,21.80
2024-04-08T08:13:48.042Z,21.90
2024-04-08T08:16:49.864Z,21.90
2024-04-08T08:19:52.319Z,22.00
2024-04-08T08:22:57.900Z,22.00
2024-04-08T08:26:01.382Z,22.10
2024-04-08T08:29:03.267Z,22.20
2024-04-08T08:32:05.621Z,22.40
2024-04-08T08:35:07.719Z,22.60
2024-04-08T08:38:10.502Z,22.70
2024-04-08T08:41:12.960Z,22.80
2024-04-08T08:44:14.874Z,22.80
2024-04-08T08:47:16.960Z,22.80
2024-04-08T08:50:18.766Z,22.90
2024-04-08T08:53:20.604Z,23.00
2024-04-08T08:56:24.068Z,23.00
2024-04-08T08:59:26.633Z,23.10
2024-04-08T09:02:28.586Z,23.10
2024-04-08T09:05:30.340Z,23.10
2024-04-08T09:08:33.503Z,23.20
2024-04-08T09:11:45.581Z,23.30
2024-04-08T09:14:52.479Z,23.50
2024-04-08T09:18:04.796Z,23.60
2024-04-08T09:21:07.026Z,23.80
2024-04-08T09:24:09.394Z,23.80
2024-04-08T09:27:12.194Z,23.70
2024-04-08T09:30:13.978Z,23.80
2024-04-08T09:33:15.988Z,24.00
2024-04-08T09:36:18.637Z,24.10
2024-04-08T09:39:21.764Z,24.20
2024-04-08T09:42:25.519Z,24.30
2024-04-08T09:45:27.327Z,24.40
2024-04-08T09:48:31.618Z,24.40
2024-04-08T09:51:34.322Z,24.50
2024-04-08T09:54:37.142Z,24.70
2024-04-08T09:57:42.912Z,24.80
2024-04-08T10:00:46.738Z,25.00
2024-04-08T10:03:52.743Z,25.10
2024-04-08T10:06:57.196Z,25.10
2024-04-08T10:10:02.442Z,25.10
2024-04-08T10:13:04.293Z,25.20
2024-04-08T10:16:13.741Z,25.30
2024-04-08T10:19:15.742Z,25.50
2024-04-08T10:22:21.778Z,25.60
2024-04-08T10:25:39.600Z,25.70
2024-04-08T10:28:42.892Z,25.70
2024-04-08T10:31:44.675Z,25.70
2024-04-08T10:34:46.593Z,25.70
2024-04-08T10:37:48.346Z,25.70
2024-04-08T10:40:50.284Z,25.60
2024-04-08T10:43:52.171Z,25.60
2024-04-08T10:46:55.055Z,25.60
2024-04-08T10:49:56.842Z,25.60
2024-04-08T10:52:58.938Z,25.80
2024-04-08T10:56:01.810Z,26.10
2024-04-08T10:59:03.704Z,26.30
2024-04-08T11:02:14.922Z,26.50
2024-04-08T11:05:17.406Z,26.50
2024-04-08T11:08:20.489Z,26.60
2024-04-08T11:11:27.326Z,26.60
2024-04-08T11:14:29.966Z,26.60
2024-04-08T11:17:32.368Z,26.70
2024-04-08T11:20:34.370Z,26.80
2024-04-08T11:23:42.170Z,26.80
2024-04-08T11:26:52.696Z,26.80
2024-04-08T11:30:00.654Z,27.00
2024-04-08T11:33:04.395Z,27.00
2024-04-08T11:36:08.431Z,26.90
2024-04-08T11:39:10.320Z,26.90
2024-04-08T11:42:13.287Z,27.00
2024-04-08T11:45:15.262Z,27.10
2024-04-08T11:48:18.528Z,27.30
2024-04-08T11:51:20.501Z,27.40
2024-04-08T11:54:22.426Z,27.50
2024-04-08T11:57:24.239Z,27.60
2024-04-08T12:00:27.309Z,27.70
2024-04-08T12:03:29.126Z,27.80
2024-04-08T12:06:31.367Z,27.70
2024-04-08T12:09:33.154Z,27.60
2024-04-08T12:12:34.942Z,27.40
2024-04-08T12:15:36.663Z,27.30
2024-04-08T12:18:38.470Z,27.40
2024-04-08T12:21:40.370Z,27.70
2024-04-08T12:24:44.086Z,27.90
2024-04-08T12:27:45.917Z,27.90
2024-04-08T12:30:48.740Z,27.80
2024-04-08T12:33:50.548Z,27.80
2024-04-08T12:36:52.599Z,27.90
2024-04-08T12:39:54.342Z,27.90
2024-04-08T12:42:56.154Z,28.10
2024-04-08T12:45:57.896Z,28.20
2024-04-08T12:48:59.854Z,28.40
2024-04-08T12:52:01.854Z,28.60
2024-04-08T12:55:04.385Z,28.60
2024-04-08T12:58:11.399Z,28.60
2024-04-08T13:01:13.253Z,28.60
2024-04-08T13:04:15.219Z,28.60
2024-04-08T13:07:17.378Z,28.60
2024-04-08T13:10:19.201Z,28.60
2024-04-08T13:13:20.959Z,28.60
2024-04-08T13:16:22.875Z,28.60
2024-04-08T13:19:24.727Z,28.70
2024-04-08T13:22:26.567Z,28.70
2024-04-08T13:25:29.405Z,28.70
2024-04-08T13:28:32.972Z,28.60
2024-04-08T13:31:34.795Z,28.80
2024-04-08T13:34:36.750Z,28.70
2024-04-08T13:37:38.665Z,28.80
2024-04-08T13:40:40.448Z,28.80
2024-04-08T13:43:45.148Z,29.00
2024-04-08T13:46:47.627Z,29.00
2024-04-08T13:49:49.457Z,29.00
2024-04-08T13:52:51.295Z,28.90
2024-04-08T13:56:03.587Z,29.00
2024-04-08T13:59:05.322Z,29.00
2024-04-08T14:02:07.172Z,29.00
2024-04-08T14:05:09.414Z,29.10
2024-04-08T14:08:11.514Z,29.10
2024-04-08T14:11:13.545Z,29.00
2024-04-08T14:14:15.493Z,29.20
2024-04-08T14:17:18.931Z,29.30
2024-04-08T14:20:21.098Z,29.20
2024-04-08T14:23:23.050Z,29.20
2024-04-08T14:26:24.948Z,29.00
2024-04-08T14:29:27.680Z,28.80
2024-04-08T14:32:29.678Z,28.50
2024-04-08T14:35:31.771Z,28.40
2024-04-08T14:38:55.368Z,28.20
2024-04-08T14:41:55.408Z,28.30
2024-04-08T14:45:02.872Z,28.60
2024-04-08T14:48:08.305Z,28.90
2024-04-08T14:51:10.341Z,29.10
2024-04-08T14:54:12.263Z,29.20
2024-04-08T14:57:14.473Z,29.20
2024-04-08T15:00:19.697Z,29.20
2024-04-08T15:03:21.653Z,29.10
2024-04-08T15:06:23.590Z,29.10
2024-04-08T15:09:25.704Z,29.00
2024-04-08T15:12:27.936Z,29.20
2024-04-08T15:15:29.778Z,29.30
2024-04-08T15:18:31.880Z,29.50
2024-04-08T15:21:34.116Z,29.60
2024-04-08T15:24:35.923Z,29.60
2024-04-08T15:27:38.305Z,29.70
2024-04-08T15:30:41.575Z,29.70
2024-04-08T15:33:43.620Z,29.70
2024-04-08T15:36:45.588Z,29.70
2024-04-08T15:39:49.287Z,29.70
2024-04-08T15:42:51.037Z,29.60
2024-04-08T15:45:55.604Z,29.40
2024-04-08T15:48:57.508Z,29.10
2024-04-08T15:51:59.404Z,28.70
2024-04-08T15:55:01.393Z,28.50
2024-04-08T15:58:04.153Z,28.40
2024-04-08T16:01:07.197Z,28.50
2024-04-08T16:04:10.047Z,28.60
2024-04-08T16:07:12.134Z,28.70
2024-04-08T16:10:17.760Z,28.80
2024-04-08T16:13:19.502Z,28.80
2024-04-08T16:16:21.389Z,28.80
2024-04-08T16:19:23.210Z,28.90
2024-04-08T16:22:29.164Z,28.90
2024-04-08T16:25:32.909Z,28.80
2024-04-08T16:28:35.844Z,28.60
2024-04-08T16:31:37.612Z,28.40
2024-04-08T16:34:39.711Z,28.10
2024-04-08T16:37:41.688Z,27.90
2024-04-08T16:40:44.624Z,27.70
2024-04-08T16:43:48.014Z,27.40
2024-04-08T16:46:51.770Z,27.30
2024-04-08T16:49:53.556Z,27.20
2024-04-08T16:52:55.375Z,27.20
2024-04-08T16:56:04.478Z,27.10
2024-04-08T16:59:06.308Z,27.00
2024-04-08T17:02:08.131Z,26.90
2024-04-08T17:05:09.910Z,26.80
2024-04-08T17:08:11.655Z,26.70
2024-04-08T17:11:14.004Z,26.50
2024-04-08T17:14:15.854Z,26.40
2024-04-08T17:17:17.766Z,26.30
2024-04-08T17:20:19.773Z,26.20
2024-04-08T17:23:21.759Z,26.20
2024-04-08T17:26:23.546Z,26.20
2024-04-08T17:29:25.405Z,26.10
2024-04-08T17:32:29.176Z,25.90
2024-04-08T17:35:31.951Z,25.70
2024-04-08T17:38:40.951Z,25.60
2024-04-08T17:41:42.796Z,25.40
2024-04-08T17:44:45.260Z,25.30
2024-04-08T17:47:47.239Z,25.10
2024-04-08T17:50:56.225Z,24.90
2024-04-08T17:53:58.159Z,24.70
2024-04-08T17:57:00.039Z,24.50
2024-04-08T18:00:02.165Z,24.30
2024-04-08T18:03:04.975Z,24.00
2024-04-08T18:06:22.900Z,23.80
2024-04-08T18:09:24.829Z,23.70
2024-04-08T18:12:26.780Z,23.50
2024-04-08T18:15:34.177Z,23.40
2024-04-08T18:18:36.080Z,23.20
2024-04-08T18:21:41.966Z,23.10
2024-04-08T18:24:43.897Z,23.00
2024-04-08T18:27:45.767Z,22.70
2024-04-08T18:30:47.764Z,22.60
2024-04-08T18:33:51.935Z,22.50
2024-04-08T18:36:54.157Z,22.30
2024-04-08T18:39:56.195Z,22.30
2024-04-08T18:42:58.058Z,22.10
2024-04-08T18:46:01.177Z,22.00
2024-04-08T18:49:03.238Z,21.90
2024-04-08T18:52:05.634Z,21.80
2024-04-08T18:55:07.553Z,21.60
2024-04-08T18:58:09.440Z,21.50
2024-04-08T19:01:20.557Z,21.40
2024-04-08T19:04:24.888Z,21.30
2024-04-08T19:07:27.033Z,21.10
2024-04-08T19:10:28.828Z,21.00
2024-04-08T19:13:30.726Z,20.80
2024-04-08T19:16:32.922Z,20.60
2024-04-08T19:19:34.786Z,20.60
2024-04-08T19:22:37.929Z,20.50
2024-04-08T19:25:39.992Z,20.50
2024-04-08T19:28:42.049Z,20.50
2024-04-08T19:31:43.914Z,20.60
2024-04-08T19:34:48.738Z,20.60
2024-04-08T19:37:50.515Z,20.50
2024-04-08T19:41:18.328Z,20.40
2024-04-08T19:44:20.282Z,20.40
2024-04-08T19:47:22.755Z,20.20
2024-04-08T19:50:25.247Z,20.00
2024-04-08T19:53:27.107Z,19.90
2024-04-08T19:56:30.163Z,19.80
2024-04-08T19:59:32.286Z,19.70
2024-04-08T20:02:34.078Z,19.70
2024-04-08T20:05:36.106Z,19.60
2024-04-08T20:08:37.933Z,19.70
2024-04-08T20:11:39.678Z,19.70
2024-04-08T20:14:41.494Z,19.80
2024-04-08T20:17:43.385Z,19.90
2024-04-08T20:20:50.181Z,20.00
2024-04-08T20:23:52.463Z,20.20
2024-04-08T20:26:54.510Z,20.20
2024-04-08T20:29:56.439Z,20.30
2024-04-08T20:32:59.184Z,20.30
2024-04-08T20:36:06.581Z,20.30
2024-04-08T20:39:08.632Z,20.20
2024-04-08T20:42:10.484Z,20.00
2024-04-08T20:45:12.360Z,19.80
2024-04-08T20:48:14.313Z,19.70
2024-04-08T20:51:16.480Z,19.60
2024-04-08T20:54:18.514Z,19.50
2024-04-08T20:57:20.434Z,19.50
2024-04-08T21:00:22.436Z,19.50
2024-04-08T21:03:24.493Z,19.50
2024-04-08T21:06:27.452Z,19.50
2024-04-08T21:09:30.924Z,19.50
2024-04-08T21:12:33.069Z,19.50
2024-04-08T21:15:35.665Z,19.50
2024-04-08T21:18:38.148Z,19.50
2024-04-08T21:21:40.365Z,19.50
2024-04-08T21:24:42.199Z,19.50
2024-04-08T21:27:44.458Z,19.50
2024-04-08T21:30:50.202Z,19.40
2024-04-08T21:33:52.473Z,19.40
2024-04-08T21:36:54.361Z,19.40
2024-04-08T21:39:56.212Z,19.40
2024-04-08T21:42:58.339Z,19.30
2024-04-08T21:46:04.703Z,19.30
2024-04-08T21:49:06.684Z,19.30
2024-04-08T21:52:08.538Z,19.30
2024-04-08T21:55:12.076Z,19.30
2024-04-08T21:58:13.803Z,19.20
2024-04-08T22:01:17.299Z,19.00
2024-04-08T22:04:19.304Z,18.80
2024-04-08T22:07:21.195Z,18.60
2024-04-08T22:10:23.046Z,18.60
2024-04-08T22:13:25.463Z,18.60
2024-04-08T22:16:27.330Z,18.60
2024-04-08T22:19:29.926Z,18.70
2024-04-08T22:22:32.615Z,18.70
2024-04-08T22:25:37.966Z,18.60
2024-04-08T22:28:39.829Z,18.70
2024-04-08T22:31:41.634Z,18.60
2024-04-08T22:34:43.599Z,18.60
2024-04-08T22:37:45.472Z,18.70
2024-04-08T22:40:47.546Z,18.60
2024-04-08T22:43:49.392Z,18.50
2024-04-08T22:46:51.248Z,18.40
2024-04-08T22:49:53.111Z,18.30
2024-04-08T22:52:54.862Z,18.30
2024-04-08T22:55:56.709Z,18.30
2024-04-08T22:58:58.425Z,18.30
2024-04-08T23:02:00.183Z,18.30
2024-04-08T23:05:02.544Z,18.30
2024-04-08T23:08:04.765Z,18.30
2024-04-08T23:11:07.164Z,18.30
2024-04-08T23:14:08.908Z,18.30
2024-04-08T23:17:11.303Z,18.30
2024-04-08T23:20:13.154Z,18.30
2024-04-08T23:23:15.363Z,18.10
2024-04-08T23:26:18.178Z,18.00
2024-04-08T23:29:22.234Z,18.00
2024-04-08T23:32:24.295Z,18.00
2024-04-08T23:35:26.055Z,18.00
2024-04-08T23:38:29.178Z,18.10
2024-04-08T23:41:31.025Z,18.10
2024-04-08T23:44:32.786Z,18.10
2024-04-08T23:47:35.026Z,18.10
2024-04-08T23:50:37.316Z,18.10
2024-04-08T23:53:39.095Z,18.10
2024-04-08T23:56:40.884Z,18.10
2024-04-08T23:59:43.011Z,18.00
